createdAt,value
2023-04-03T00:00:02.503Z,15.39
2023-04-03T00:02:30.271Z,15.40
2023-04-03T00:04:56.692Z,15.39
2023-04-03T00:07:23.149Z,15.42
2023-04-03T00:09:49.540Z,15.42
2023-04-03T00:12:15.982Z,15.43
2023-04-03T00:14:42.643Z,15.42
2023-04-03T00:17:09.514Z,15.38
2023-04-03T00:19:36.333Z,15.39
2023-04-03T00:22:02.789Z,15.40
2023-04-03T00:24:29.083Z,15.38
2023-04-03T00:26:55.404Z,15.41
2023-04-03T00:29:21.761Z,15.36
2023-04-03T00:31:48.056Z,15.36
2023-04-03T00:34:14.413Z,15.29
2023-04-03T00:36:40.789Z,15.30
2023-04-03T00:39:07.452Z,15.28
2023-04-03T00:41:33.794Z,15.30
2023-04-03T00:44:00.129Z,15.23
2023-04-03T00:46:26.639Z,15.27
2023-04-03T00:48:53.549Z,15.28
2023-04-03T00:51:19.899Z,15.27
2023-04-03T00:53:46.234Z,15.26
2023-04-03T00:56:12.603Z,15.27
2023-04-03T00:58:38.992Z,15.25
2023-04-03T01:01:05.922Z,15.22
2023-04-03T01:03:33.096Z,15.24
2023-04-03T01:06:00.565Z,15.29
2023-04-03T01:08:27.098Z,15.24
2023-04-03T01:10:53.542Z,15.22
2023-04-03T01:13:19.904Z,15.24
2023-04-03T01:15:46.644Z,15.24
2023-04-03T01:18:13.006Z,15.22
2023-04-03T01:20:39.636Z,15.17
2023-04-03T01:23:06.460Z,15.18
2023-04-03T01:25:32.838Z,15.14
2023-04-03T01:27:59.480Z,15.13
2023-04-03T01:30:26.077Z,15.15
2023-04-03T01:32:52.615Z,15.14
2023-04-03T01:35:18.972Z,15.13
2023-04-03T01:37:45.263Z,15.19
2023-04-03T01:40:11.625Z,15.12
2023-04-03T01:42:38.185Z,15.13
2023-04-03T01:45:04.594Z,15.09
2023-04-03T01:47:30.935Z,15.15
2023-04-03T01:49:57.417Z,15.14
2023-04-03T01:52:23.963Z,15.07
2023-04-03T01:54:50.330Z,15.10
2023-04-03T01:57:16.859Z,15.10
2023-04-03T01:59:43.425Z,15.05
2023-04-03T02:02:10.087Z,15.07
2023-04-03T02:04:36.500Z,15.06
2023-04-03T02:07:02.967Z,15.04
2023-04-03T02:09:29.558Z,14.97
2023-04-03T02:11:55.918Z,15.03
2023-04-03T02:14:22.292Z,15.02
2023-04-03T02:16:48.724Z,15.03
2023-04-03T02:19:15.270Z,15.02
2023-04-03T02:21:41.875Z,14.98
2023-04-03T02:24:08.679Z,14.96
2023-04-03T02:26:35.268Z,14.95
2023-04-03T02:29:01.669Z,14.96
2023-04-03T02:31:28.015Z,14.92
2023-04-03T02:33:55.295Z,14.96
2023-04-03T02:36:21.649Z,14.95
2023-04-03T02:38:48.031Z,14.97
2023-04-03T02:41:14.604Z,14.95
2023-04-03T02:43:41.034Z,14.96
2023-04-03T02:46:08.025Z,14.95
2023-04-03T02:48:34.750Z,14.91
2023-04-03T02:51:01.228Z,14.95
2023-04-03T02:53:27.673Z,14.94
2023-04-03T02:55:54.202Z,14.92
2023-04-03T02:58:21.109Z,14.89
2023-04-03T03:00:47.627Z,14.86
2023-04-03T03:03:14.777Z,14.86
2023-04-03T03:05:41.096Z,14.90
2023-04-03T03:08:07.400Z,14.92
2023-04-03T03:10:33.847Z,14.89
2023-04-03T03:13:00.180Z,14.85
2023-04-03T03:15:26.611Z,14.83
2023-04-03T03:17:52.973Z,14.84
2023-04-03T03:20:19.424Z,14.78
2023-04-03T03:22:45.905Z,14.86
2023-04-03T03:25:12.306Z,14.85
2023-04-03T03:27:38.667Z,14.85
2023-04-03T03:30:05.054Z,14.85
2023-04-03T03:32:31.784Z,14.86
2023-04-03T03:34:58.169Z,14.85
2023-04-03T03:37:24.486Z,14.85
2023-04-03T03:39:51.041Z,14.94
2023-04-03T03:42:17.565Z,14.94
2023-04-03T03:44:44.173Z,14.81
2023-04-03T03:47:10.511Z,14.79
2023-04-03T03:49:36.830Z,14.89
2023-04-03T03:52:03.334Z,14.79
2023-04-03T03:54:29.633Z,14.79
2023-04-03T03:56:56.048Z,14.86
2023-04-03T03:59:22.565Z,14.78
2023-04-03T04:01:48.916Z,14.74
2023-04-03T04:04:15.405Z,14.70
2023-04-03T04:06:41.800Z,14.75
2023-04-03T04:09:08.121Z,14.77
2023-04-03T04:11:34.635Z,14.70
2023-04-03T04:14:01.021Z,14.70
2023-04-03T04:16:27.418Z,14.65
2023-04-03T04:18:54.005Z,14.69
2023-04-03T04:21:20.478Z,14.75
2023-04-03T04:23:46.771Z,14.69
2023-04-03T04:26:13.257Z,14.75
2023-04-03T04:28:39.612Z,14.72
2023-04-03T04:31:06.398Z,14.72
2023-04-03T04:33:33.057Z,14.68
2023-04-03T04:35:59.670Z,14.72
2023-04-03T04:38:26.397Z,14.74
2023-04-03T04:40:52.702Z,14.65
2023-04-03T04:43:19.566Z,14.76
2023-04-03T04:45:46.041Z,14.66
2023-04-03T04:48:12.610Z,14.75
2023-04-03T04:50:39.028Z,14.75
2023-04-03T04:53:05.298Z,14.76
2023-04-03T04:55:31.625Z,14.67
2023-04-03T04:57:57.974Z,14.68
2023-04-03T05:00:24.430Z,14.68
2023-04-03T05:02:51.094Z,14.68
2023-04-03T05:05:17.531Z,14.70
2023-04-03T05:07:44.010Z,14.65
2023-04-03T05:10:10.352Z,14.58
2023-04-03T05:12:36.671Z,14.58
2023-04-03T05:15:02.998Z,14.63
2023-04-03T05:17:29.654Z,14.58
2023-04-03T05:19:56.051Z,14.58
2023-04-03T05:22:22.498Z,14.64
2023-04-03T05:24:48.958Z,14.53
2023-04-03T05:27:15.390Z,14.55
2023-04-03T05:29:42.599Z,14.49
2023-04-03T05:32:10.126Z,14.48
2023-04-03T05:34:36.503Z,14.50
2023-04-03T05:37:02.815Z,14.68
2023-04-03T05:39:29.410Z,14.84
2023-04-03T05:41:56.139Z,14.91
2023-04-03T05:44:22.481Z,14.70
2023-04-03T05:46:48.864Z,14.51
2023-04-03T05:49:15.556Z,14.51
2023-04-03T05:51:41.848Z,14.46
2023-04-03T05:54:08.191Z,14.53
2023-04-03T05:56:34.606Z,14.44
2023-04-03T05:59:01.024Z,14.46
2023-04-03T06:01:27.391Z,14.51
2023-04-03T06:03:54.014Z,14.49
2023-04-03T06:06:20.538Z,14.48
2023-04-03T06:08:47.024Z,14.49
2023-04-03T06:11:13.382Z,14.50
2023-04-03T06:13:40.036Z,14.58
2023-04-03T06:16:06.562Z,14.54
2023-04-03T06:18:32.947Z,14.58
2023-04-03T06:20:59.490Z,14.59
2023-04-03T06:23:25.936Z,14.54
2023-04-03T06:25:52.426Z,14.62
2023-04-03T06:28:18.777Z,14.58
2023-04-03T06:30:45.211Z,14.63
2023-04-03T06:33:11.815Z,14.71
2023-04-03T06:35:38.335Z,14.65
2023-04-03T06:38:04.754Z,14.68
2023-04-03T06:40:31.190Z,14.76
2023-04-03T06:42:57.510Z,14.70
2023-04-03T06:45:23.870Z,14.72
2023-04-03T06:47:50.272Z,14.79
2023-04-03T06:50:16.663Z,14.83
2023-04-03T06:52:43.222Z,14.89
2023-04-03T06:55:10.199Z,14.95
2023-04-03T06:57:36.683Z,15.01
2023-04-03T07:00:03.027Z,14.87
2023-04-03T07:02:29.625Z,14.92
2023-04-03T07:04:56.207Z,14.95
2023-04-03T07:07:23.047Z,14.97
2023-04-03T07:09:49.366Z,15.00
2023-04-03T07:12:15.785Z,15.02
2023-04-03T07:14:42.307Z,14.96
2023-04-03T07:17:09.196Z,15.05
2023-04-03T07:19:35.749Z,15.03
2023-04-03T07:22:02.118Z,15.00
2023-04-03T07:24:28.791Z,15.01
2023-04-03T07:26:55.239Z,14.94
2023-04-03T07:29:21.709Z,15.02
2023-04-03T07:31:48.112Z,15.02
2023-04-03T07:34:14.926Z,15.00
2023-04-03T07:36:41.326Z,15.00
2023-04-03T07:39:07.722Z,14.94
2023-04-03T07:41:34.084Z,14.98
2023-04-03T07:44:00.855Z,14.96
2023-04-03T07:46:28.111Z,14.99
2023-04-03T07:48:55.272Z,14.92
2023-04-03T07:51:23.427Z,14.92
2023-04-03T07:53:49.805Z,14.99
2023-04-03T07:56:16.515Z,14.92
2023-04-03T07:58:42.801Z,14.95
2023-04-03T08:01:10.215Z,14.90
2023-04-03T08:03:37.147Z,14.96
2023-04-03T08:06:03.716Z,14.92
2023-04-03T08:08:30.158Z,15.00
2023-04-03T08:10:56.478Z,14.95
2023-04-03T08:13:23.099Z,14.97
2023-04-03T08:15:49.913Z,14.95
2023-04-03T08:18:16.286Z,14.92
2023-04-03T08:20:42.937Z,14.90
2023-04-03T08:23:09.302Z,14.92
2023-04-03T08:25:36.188Z,14.88
2023-04-03T08:28:03.590Z,14.90
2023-04-03T08:30:29.911Z,14.88
2023-04-03T08:32:56.350Z,15.09
2023-04-03T08:35:22.834Z,14.83
2023-04-03T08:37:49.103Z,14.85
2023-04-03T08:40:15.524Z,14.88
2023-04-03T08:42:42.821Z,14.92
2023-04-03T08:45:09.394Z,14.75
2023-04-03T08:47:36.701Z,14.83
2023-04-03T08:50:03.356Z,14.78
2023-04-03T08:52:30.125Z,14.84
2023-04-03T08:54:56.388Z,14.89
2023-04-03T08:57:23.212Z,14.83
2023-04-03T08:59:49.631Z,14.80
2023-04-03T09:02:16.016Z,14.89
2023-04-03T09:04:42.492Z,14.92
2023-04-03T09:07:08.890Z,14.97
2023-04-03T09:09:35.261Z,14.84
2023-04-03T09:12:01.611Z,14.83
2023-04-03T09:14:28.124Z,14.81
2023-04-03T09:16:54.480Z,14.88
2023-04-03T09:19:20.930Z,14.89
2023-04-03T09:21:47.353Z,14.89
2023-04-03T09:24:13.756Z,14.87
2023-04-03T09:26:40.687Z,14.94
2023-04-03T09:29:07.722Z,14.95
2023-04-03T09:31:34.312Z,14.96
2023-04-03T09:34:00.823Z,14.91
2023-04-03T09:36:27.510Z,14.90
2023-04-03T09:38:54.569Z,14.86
2023-04-03T09:41:20.990Z,14.91
2023-04-03T09:43:47.351Z,14.83
2023-04-03T09:46:13.723Z,14.84
2023-04-03T09:48:40.106Z,14.78
2023-04-03T09:51:06.580Z,14.68
2023-04-03T09:53:33.567Z,14.63
2023-04-03T09:55:59.974Z,14.63
2023-04-03T09:58:28.110Z,14.59
2023-04-03T10:00:58.358Z,14.63
2023-04-03T10:03:24.790Z,14.75
2023-04-03T10:05:51.185Z,14.71
2023-04-03T10:08:17.555Z,14.68
2023-04-03T10:10:43.923Z,14.84
2023-04-03T10:13:12.208Z,14.86
2023-04-03T10:15:40.876Z,14.65
2023-04-03T10:18:21.668Z,14.72
2023-04-03T10:20:50.673Z,14.88
2023-04-03T10:23:17.357Z,14.80
2023-04-03T10:25:43.827Z,14.77
2023-04-03T10:28:10.141Z,14.78
2023-04-03T10:30:36.849Z,14.64
2023-04-03T10:33:03.873Z,14.62
2023-04-03T10:35:30.718Z,14.68
2023-04-03T10:37:57.020Z,14.68
2023-04-03T10:40:23.401Z,14.65
2023-04-03T10:42:50.096Z,14.68
2023-04-03T10:45:16.702Z,14.62
2023-04-03T10:47:43.117Z,14.71
2023-04-03T10:50:09.752Z,14.75
2023-04-03T10:52:36.121Z,14.73
2023-04-03T10:55:02.625Z,14.76
2023-04-03T10:57:29.338Z,14.76
2023-04-03T10:59:55.699Z,14.68
2023-04-03T11:02:22.238Z,14.68
2023-04-03T11:04:48.839Z,14.63
2023-04-03T11:07:15.142Z,14.63
2023-04-03T11:09:41.534Z,14.68
2023-04-03T11:12:07.953Z,14.63
2023-04-03T11:14:34.482Z,14.55
2023-04-03T11:17:01.182Z,14.54
2023-04-03T11:19:28.199Z,14.58
2023-04-03T11:21:55.141Z,14.61
2023-04-03T11:24:21.536Z,14.54
2023-04-03T11:26:47.916Z,14.58
2023-04-03T11:29:18.036Z,14.54
2023-04-03T11:31:51.349Z,14.59
2023-04-03T11:34:18.116Z,14.59
2023-04-03T11:36:44.580Z,14.54
2023-04-03T11:39:11.386Z,14.59
2023-04-03T11:41:38.009Z,14.48
2023-04-03T11:44:04.454Z,14.56
2023-04-03T11:46:30.952Z,14.60
2023-04-03T11:48:57.353Z,14.51
2023-04-03T11:51:23.987Z,14.54
2023-04-03T11:53:50.314Z,14.52
2023-04-03T11:56:16.681Z,14.56
2023-04-03T11:58:43.004Z,14.54
2023-04-03T12:01:09.288Z,14.58
2023-04-03T12:03:35.674Z,14.59
2023-04-03T12:06:02.268Z,14.47
2023-04-03T12:08:28.652Z,14.47
2023-04-03T12:10:55.241Z,14.56
2023-04-03T12:13:21.816Z,14.48
2023-04-03T12:15:48.175Z,14.53
2023-04-03T12:18:14.620Z,14.53
2023-04-03T12:20:41.795Z,14.58
2023-04-03T12:23:08.167Z,14.53
2023-04-03T12:25:34.815Z,14.50
2023-04-03T12:28:01.325Z,14.58
2023-04-03T12:30:28.003Z,14.50
2023-04-03T12:33:05.689Z,14.49
2023-04-03T12:35:36.893Z,14.47
2023-04-03T12:38:04.017Z,14.47
2023-04-03T12:40:30.310Z,14.50
2023-04-03T12:42:57.330Z,14.46
2023-04-03T12:45:23.642Z,14.41
2023-04-03T12:47:50.171Z,14.44
2023-04-03T12:50:16.519Z,14.48
2023-04-03T12:52:43.286Z,14.47
2023-04-03T12:55:09.877Z,14.47
2023-04-03T12:57:36.878Z,14.45
2023-04-03T13:00:03.326Z,14.48
2023-04-03T13:02:30.475Z,14.48
2023-04-03T13:04:57.146Z,14.41
2023-04-03T13:07:23.758Z,14.38
2023-04-03T13:09:50.562Z,14.35
2023-04-03T13:12:17.218Z,14.43
2023-04-03T13:14:44.053Z,14.37
2023-04-03T13:17:10.367Z,14.35
2023-04-03T13:19:37.059Z,14.36
2023-04-03T13:22:03.460Z,14.46
2023-04-03T13:24:30.073Z,14.62
2023-04-03T13:26:56.477Z,14.50
2023-04-03T13:29:29.853Z,14.44
2023-04-03T13:31:57.232Z,14.44
2023-04-03T13:34:23.665Z,14.46
2023-04-03T13:36:50.098Z,14.50
2023-04-03T13:39:16.606Z,14.56
2023-04-03T13:41:43.056Z,14.62
2023-04-03T13:44:12.511Z,14.71
2023-04-03T13:46:39.202Z,14.79
2023-04-03T13:49:05.781Z,14.85
2023-04-03T13:51:32.399Z,14.92
2023-04-03T13:53:59.192Z,14.99
2023-04-03T13:56:25.495Z,15.09
2023-04-03T13:58:51.983Z,15.15
2023-04-03T14:01:18.537Z,15.24
2023-04-03T14:03:44.966Z,15.31
2023-04-03T14:06:12.096Z,15.38
2023-04-03T14:08:43.271Z,15.46
2023-04-03T14:11:10.357Z,15.57
2023-04-03T14:13:36.637Z,15.64
2023-04-03T14:16:14.999Z,15.72
2023-04-03T14:18:42.220Z,15.80
2023-04-03T14:21:08.623Z,15.87
2023-04-03T14:23:35.020Z,15.91
2023-04-03T14:26:01.527Z,15.97
2023-04-03T14:28:27.936Z,16.05
2023-04-03T14:30:54.359Z,16.11
2023-04-03T14:33:20.700Z,16.16
2023-04-03T14:35:47.035Z,16.23
2023-04-03T14:38:13.494Z,16.28
2023-04-03T14:40:39.997Z,16.35
2023-04-03T14:43:06.765Z,16.41
2023-04-03T14:45:33.114Z,16.47
2023-04-03T14:47:59.625Z,16.51
2023-04-03T14:50:26.146Z,16.53
2023-04-03T14:52:52.552Z,16.54
2023-04-03T14:55:18.998Z,16.57
2023-04-03T14:57:45.647Z,16.62
2023-04-03T15:00:12.040Z,16.63
2023-04-03T15:02:38.870Z,16.67
2023-04-03T15:05:05.663Z,16.69
2023-04-03T15:07:32.099Z,16.72
2023-04-03T15:09:58.494Z,16.77
2023-04-03T15:12:24.865Z,16.82
2023-04-03T15:14:57.414Z,16.81
2023-04-03T15:17:27.367Z,16.85
2023-04-03T15:19:53.857Z,16.91
2023-04-03T15:22:20.320Z,16.94
2023-04-03T15:24:47.030Z,16.99
2023-04-03T15:27:13.420Z,17.02
2023-04-03T15:29:40.420Z,17.06
2023-04-03T15:32:06.880Z,17.10
2023-04-03T15:34:33.276Z,17.12
2023-04-03T15:36:59.660Z,17.11
2023-04-03T15:39:26.051Z,17.12
2023-04-03T15:41:52.433Z,17.15
2023-04-03T15:44:18.851Z,17.18
2023-04-03T15:46:45.248Z,17.25
2023-04-03T15:49:11.790Z,17.29
2023-04-03T15:51:38.448Z,17.34
2023-04-03T15:54:04.893Z,17.39
2023-04-03T15:56:31.217Z,17.44
2023-04-03T15:58:57.868Z,17.48
2023-04-03T16:01:24.461Z,17.52
2023-04-03T16:03:50.892Z,17.57
2023-04-03T16:06:18.189Z,17.62
2023-04-03T16:08:44.490Z,17.65
2023-04-03T16:11:11.346Z,17.67
2023-04-03T16:13:37.955Z,17.72
2023-04-03T16:16:04.576Z,17.76
2023-04-03T16:18:31.195Z,17.80
2023-04-03T16:20:57.980Z,17.82
2023-04-03T16:23:24.324Z,17.86
2023-04-03T16:25:50.618Z,17.89
2023-04-03T16:28:17.089Z,17.93
2023-04-03T16:30:43.470Z,17.97
2023-04-03T16:33:09.838Z,17.99
2023-04-03T16:35:36.460Z,18.03
2023-04-03T16:38:03.060Z,18.05
2023-04-03T16:40:29.677Z,18.07
2023-04-03T16:42:56.274Z,18.11
2023-04-03T16:45:22.578Z,18.15
2023-04-03T16:47:48.995Z,18.21
2023-04-03T16:50:15.682Z,18.24
2023-04-03T16:52:42.382Z,18.30
2023-04-03T16:55:09.144Z,18.34
2023-04-03T16:57:35.778Z,18.35
2023-04-03T17:00:02.128Z,18.38
2023-04-03T17:02:28.676Z,18.41
2023-04-03T17:04:55.037Z,18.43
2023-04-03T17:07:21.675Z,18.48
2023-04-03T17:09:48.276Z,18.50
2023-04-03T17:12:15.878Z,18.53
2023-04-03T17:14:42.252Z,18.55
2023-04-03T17:17:08.810Z,18.60
2023-04-03T17:19:35.746Z,18.63
2023-04-03T17:22:02.053Z,18.66
2023-04-03T17:24:28.442Z,18.69
2023-04-03T17:26:55.240Z,18.71
2023-04-03T17:29:21.647Z,18.73
2023-04-03T17:31:48.160Z,18.77
2023-04-03T17:34:14.644Z,18.77
2023-04-03T17:36:41.728Z,18.83
2023-04-03T17:39:08.355Z,18.85
2023-04-03T17:41:35.285Z,18.79
2023-04-03T17:44:01.663Z,18.77
2023-04-03T17:46:28.110Z,18.77
2023-04-03T17:48:54.618Z,18.82
2023-04-03T17:51:20.972Z,18.83
2023-04-03T17:53:47.308Z,18.82
2023-04-03T17:56:13.893Z,18.86
2023-04-03T17:58:40.402Z,18.92
2023-04-03T18:01:07.260Z,18.92
2023-04-03T18:03:33.590Z,18.91
2023-04-03T18:05:59.958Z,18.96
2023-04-03T18:08:26.311Z,18.99
2023-04-03T18:10:52.890Z,18.98
2023-04-03T18:13:20.209Z,18.96
2023-04-03T18:15:46.672Z,18.96
2023-04-03T18:18:13.138Z,18.92
2023-04-03T18:20:39.590Z,18.80
2023-04-03T18:23:06.174Z,18.73
2023-04-03T18:28:03.849Z,18.63
2023-04-03T18:30:30.168Z,18.57
2023-04-03T18:32:56.537Z,18.50
2023-04-03T18:35:23.114Z,18.47
2023-04-03T18:37:49.991Z,18.41
2023-04-03T18:40:16.494Z,18.36
2023-04-03T18:42:42.885Z,18.32
2023-04-03T18:45:09.576Z,18.27
2023-04-03T18:47:36.258Z,18.22
2023-04-03T18:50:02.941Z,18.18
2023-04-03T18:52:29.372Z,18.13
2023-04-03T18:54:55.716Z,18.09
2023-04-03T18:57:22.166Z,18.03
2023-04-03T18:59:48.554Z,17.99
2023-04-03T19:02:14.982Z,17.96
2023-04-03T19:04:41.515Z,17.93
2023-04-03T19:07:07.875Z,17.91
2023-04-03T19:09:34.266Z,17.87
2023-04-03T19:12:00.770Z,17.85
2023-04-03T19:14:27.115Z,17.82
2023-04-03T19:16:53.574Z,17.77
2023-04-03T19:19:19.962Z,17.74
2023-04-03T19:21:46.266Z,17.72
2023-04-03T19:24:12.638Z,17.66
2023-04-03T19:26:39.173Z,17.62
2023-04-03T19:29:05.802Z,17.63
2023-04-03T19:31:32.474Z,17.60
2023-04-03T19:33:58.847Z,17.58
2023-04-03T19:36:25.394Z,17.55
2023-04-03T19:38:51.870Z,17.51
2023-04-03T19:41:18.236Z,17.50
2023-04-03T19:43:45.035Z,17.46
2023-04-03T19:46:11.511Z,17.46
2023-04-03T19:48:37.922Z,17.45
2023-04-03T19:51:04.339Z,17.40
2023-04-03T19:53:30.814Z,17.40
2023-04-03T19:55:57.172Z,17.37
2023-04-03T19:58:23.642Z,17.35
2023-04-03T20:00:50.089Z,17.34
2023-04-03T20:03:16.606Z,17.35
2023-04-03T20:05:42.942Z,17.33
2023-04-03T20:08:09.437Z,17.30
2023-04-03T20:10:35.826Z,17.28
2023-04-03T20:13:02.186Z,17.25
2023-04-03T20:15:28.823Z,17.22
2023-04-03T20:17:55.533Z,17.19
2023-04-03T20:20:21.906Z,17.19
2023-04-03T20:22:48.321Z,17.15
2023-04-03T20:25:17.491Z,17.14
2023-04-03T20:27:50.425Z,17.11
2023-04-03T20:30:16.882Z,17.07
2023-04-03T20:32:43.326Z,17.08
2023-04-03T20:35:09.694Z,17.06
2023-04-03T20:37:36.099Z,17.05
2023-04-03T20:40:02.943Z,16.99
2023-04-03T20:42:29.297Z,17.02
2023-04-03T20:44:55.630Z,17.03
2023-04-03T20:47:22.239Z,16.98
2023-04-03T20:49:49.460Z,16.95
2023-04-03T20:52:16.055Z,16.97
2023-04-03T20:54:42.682Z,16.94
2023-04-03T20:57:09.279Z,16.92
2023-04-03T20:59:35.692Z,16.88
2023-04-03T21:02:02.287Z,16.85
2023-04-03T21:04:28.650Z,16.85
2023-04-03T21:06:55.674Z,16.85
2023-04-03T21:09:22.073Z,16.83
2023-04-03T21:11:48.402Z,16.82
2023-04-03T21:14:14.940Z,16.80
2023-04-03T21:16:41.452Z,16.78
2023-04-03T21:19:07.836Z,16.77
2023-04-03T21:21:34.641Z,16.76
2023-04-03T21:24:01.605Z,16.74
2023-04-03T21:26:28.124Z,16.72
2023-04-03T21:28:54.640Z,16.70
2023-04-03T21:31:21.366Z,16.71
2023-04-03T21:33:47.923Z,16.70
2023-04-03T21:36:14.413Z,16.66
2023-04-03T21:38:41.190Z,16.64
2023-04-03T21:41:07.661Z,16.58
2023-04-03T21:43:34.260Z,16.56
2023-04-03T21:46:00.714Z,16.57
2023-04-03T21:48:27.082Z,16.55
2023-04-03T21:50:54.484Z,16.52
2023-04-03T21:53:20.934Z,16.52
2023-04-03T21:55:47.650Z,16.49
2023-04-03T21:58:14.032Z,16.46
2023-04-03T22:00:40.674Z,16.47
2023-04-03T22:03:10.293Z,16.44
2023-04-03T22:05:37.734Z,16.41
2023-04-03T22:08:04.114Z,16.41
2023-04-03T22:10:30.503Z,16.38
2023-04-03T22:12:57.219Z,16.38
2023-04-03T22:15:23.605Z,16.34
2023-04-03T22:17:50.107Z,16.33
2023-04-03T22:20:16.552Z,16.34
2023-04-03T22:22:43.431Z,16.31
2023-04-03T22:25:10.080Z,16.29
2023-04-03T22:27:36.549Z,16.26
2023-04-03T22:30:03.082Z,16.26
2023-04-03T22:32:29.686Z,16.23
2023-04-03T22:34:56.040Z,16.22
2023-04-03T22:37:22.362Z,16.22
2023-04-03T22:39:48.817Z,16.22
2023-04-03T22:42:15.737Z,16.21
2023-04-03T22:44:42.220Z,16.18
2023-04-03T22:47:08.852Z,16.17
2023-04-03T22:49:35.592Z,16.16
2023-04-03T22:52:02.045Z,16.15
2023-04-03T22:54:28.626Z,16.13
2023-04-03T22:56:55.161Z,16.12
2023-04-03T22:59:21.772Z,16.13
2023-04-03T23:01:48.465Z,16.11
2023-04-03T23:04:14.975Z,16.09
2023-04-03T23:06:41.346Z,16.07
2023-04-03T23:09:07.870Z,16.06
2023-04-03T23:11:34.355Z,16.06
2023-04-03T23:14:01.010Z,16.04
2023-04-03T23:16:27.392Z,16.04
2023-04-03T23:18:53.778Z,16.04
2023-04-03T23:21:20.291Z,16.00
2023-04-03T23:23:46.881Z,16.01
2023-04-03T23:26:13.366Z,15.99
2023-04-03T23:28:39.793Z,15.95
2023-04-03T23:31:06.368Z,15.97
2023-04-03T23:33:32.958Z,15.97
2023-04-03T23:35:59.398Z,15.94
2023-04-03T23:38:25.796Z,15.93
2023-04-03T23:40:52.560Z,15.94
2023-04-03T23:43:19.082Z,15.91
2023-04-03T23:45:45.504Z,15.91
2023-04-03T23:48:11.909Z,15.90
2023-04-03T23:50:38.511Z,15.89
2023-04-03T23:53:05.094Z,15.88
2023-04-03T23:55:31.746Z,15.87
2023-04-03T23:57:58.166Z,15.87
